South Fork, CO (81154)

10:21 AM MDT on September 04, 2015 (GMT -0600)
KCOSOUTH3 | | Change Station
CLOSE
Current Station
Personal Weather Station
Location: South Fork, CO
Elevation: 8325 ft
Nearby Weather Stations

Elev 8325 ft 37.73 °N, 106.72 °W | Updated 1 minute ago

Overcast
Overcast
55.6 °F
Feels Like 55.6 °F
N
4.0
Wind Variable Wind from West
Gusts 4.0 mph

Today
High -- | Low -- °F
--% Chance of Precip.
Yesterday
High -- | Low -- °F
Precip. -- in
6:39 AM 7:31 PM
Waning Gibbous, 58% visible
Pressure 30.29 in
Visibility 10.0 miles
Clouds Scattered Clouds 6000 ft
Overcast 8000 ft
Dew Point 46 °F
Humidity 70%
Rainfall 0.00 in
Snow Depth Not available.
UV 2 out of 12
Pollen 10.80 out of 12
Air Quality Not available.
Flu Activity Not available.
METAR KPSO 041615Z AUTO 00000KT 10SM SCT060 OVC080 16/06 A3029 RMK AO2 T01580059
Pressure 30.29 in
Visibility 10.0 miles
Clouds Scattered Clouds 6000 ft
Overcast 8000 ft
Dew Point 46 °F
Humidity 70%
Rainfall 0.00 in
Snow Depth Not available.
UV 2 out of 12
Pollen 10.80 out of 12
Air Quality Not available.
Flu Activity Not available.
METAR KPSO 041615Z AUTO 00000KT 10SM SCT060 OVC080 16/06 A3029 RMK AO2 T01580059

10-Day Weather Forecast

×

Almanac

Astronomy

Sep. 04, 2015 Rise Set
Actual Time
Civil Twilight
Nautical Twilight
Astronomical Twilight
Moon
Length of Visible Light
Length of Day
Tomorrow will be .
, % of the Moon is Illuminated

Today's Extremes

State Highs State Lows

Community

WunderPhotos

Upload Photos

1,852,218 photos uploaded!

WunderBlogs® & News

Nearby

Air Quality

  Air Quality AQ Index Pollutant
Not available.

Snow Depth

Station Depth Elevation

Earthquake Activity

City Distance Mag. Time & Date
Minimum magnitude displayed is 2.5.

Coastal Water Temperatures

Place Temperature

Stations

Nearby Weather Stations

Station Location Temp. Windchill Dew Point Humidity Wind Precip. Elev Updated Type